Aeroporto :
LOGIN :

Iscrizione | Disclaimer

   EN    FR    IT 

 










Sommario :    VFR   VFR Marginale   IFR   IFR Intensivo   IFR Molto Intensivo
Visibilità : 
Base nubi : 
>= 8 km
>= 3000ft
5 / 8 km
1000 / 3000 ft
1500m / 5 km
500 / 1000 ft
800 / 1500m
200 / 500 ft
< 800m
< 200 ft
Simboli :   Temporali  Nebbia  Neve Forte  Precipitazioni Forti  Vento > 20 kt
SIGMETs :   Varie  Temporali  Ghiacco  Turbolenza  Onda orograficha  Ceneri Vulcaniche






- Altitudine del aeroporto : 7 ft
- Codice IATA : VCE


LIPZ - Marco Polo Int. Venezia

ULTIMO METAR :
  • 131020Z 28006KT 9999 BKN005 10/09 Q0996 NOSIG

METARs OBSOLETI :
  • 130950Z 29007KT 270V330 9999 BKN006 09/09 Q0996 NOSIG
  • 130920Z 30006KT 270V360 6000 SCT004 BKN006 09/09 Q0996 NOSIG
  • 130850Z 30008KT 280V340 4000 -RA FEW004 BKN006 09/09 Q0995 NOSIG
  • 130820Z 28009KT 240V300 9000 BKN005 10/09 Q0995 NOSIG
  • 130750Z 28005KT 9999 BKN006 11/10 Q0995 NOSIG

TAF TAF LIPZ
Valido dal 13 a 06 ore il 14 a 12 ore UTC


130535Z 1306/1412 VRB05KT 9999 RA SCT020 BKN050
BECMG 1308/1310 26010KT
BECMG 1312/1314 NSW
BECMG 1314/1316 VRB06KT
BECMG 1401/1403 04010KT



MetMap, La meteo Aeronautica in un colpo d'occhio ! - Copyright ORBIFLY Dicembre 2007 - Disclaimer

ORBIFLY MET'MAP TEAM :

Programmazione e sviluppo : Alexandra Zaïnal
Concezione e sviluppo : Baudouin d'Aumeries
Co-Programmazione e sviluppo : Marc-Olivier Méhu
Supporto tecnico e logistico : Manuel Goepfert
Aiuto per la traduzione : Arnaldo La Scala

Contatto : metmap@orbifly.com




FONTI E CREDITI :

   NOAA